UZI11 KLSV-KLSV
Flight info
| Callsign | UZI11 |
|---|---|
| Flight time | 0h 28m |
| Altitude | 10000 |
| Route | KLSV |
| Aircraft | F16/M-SDE1FGHILORVWXY/L |
Departure
| Time | 2026-05-06 00:06 |
|---|---|
| Airport | Nellis Air Force Base (KLSV) |
Arrival
| Time | 2026-05-06 00:34 |
|---|---|
| Airport | Nellis Air Force Base (KLSV) |
| Time | Latitude | Longitude | Altitude | Speed | Heading |
|---|---|---|---|---|---|
| 2026-05-05 23:42 | 36.23985 | -115.03649 | 1851 ft | 0 kts | 214° |
| 2026-05-06 00:02 | 36.23983 | -115.03650 | 1851 ft | 3 kts | 208° |
| 2026-05-06 00:02 | 36.23915 | -115.03610 | 1849 ft | 10 kts | 131° |
| 2026-05-06 00:03 | 36.23952 | -115.03533 | 1849 ft | 16 kts | 40° |
| 2026-05-06 00:03 | 36.24043 | -115.03434 | 1850 ft | 17 kts | 40° |
| 2026-05-06 00:03 | 36.24128 | -115.03342 | 1854 ft | 15 kts | 41° |
| 2026-05-06 00:03 | 36.24208 | -115.03254 | 1855 ft | 15 kts | 40° |
| 2026-05-06 00:04 | 36.24286 | -115.03171 | 1859 ft | 14 kts | 41° |
| 2026-05-06 00:04 | 36.24368 | -115.03144 | 1862 ft | 13 kts | 359° |
| 2026-05-06 00:04 | 36.24459 | -115.03139 | 1865 ft | 15 kts | 1° |
| 2026-05-06 00:04 | 36.24563 | -115.03111 | 1867 ft | 9 kts | 81° |
| 2026-05-06 00:05 | 36.24555 | -115.02803 | 1862 ft | 20 kts | 92° |
| 2026-05-06 00:05 | 36.24516 | -115.02690 | 1863 ft | 10 kts | 178° |
| 2026-05-06 00:05 | 36.24264 | -115.02957 | 1862 ft | 138 kts | 221° |
| 2026-05-06 00:06 | 36.23026 | -115.04303 | 1891 ft | 343 kts | 220° |
| 2026-05-06 00:06 | 36.21796 | -115.05441 | 7609 ft | 130 kts | 205° |
| 2026-05-06 00:06 | 36.20106 | -115.06641 | 9229 ft | 344 kts | 213° |
| 2026-05-06 00:06 | 36.20022 | -115.08945 | 9086 ft | 354 kts | 347° |
| 2026-05-06 00:07 | 36.22782 | -115.08037 | 9113 ft | 467 kts | 22° |
| 2026-05-06 00:07 | 36.25808 | -115.06454 | 10383 ft | 482 kts | 22° |
| 2026-05-06 00:07 | 36.28962 | -115.05613 | 12218 ft | 465 kts | 345° |
| 2026-05-06 00:07 | 36.31911 | -115.07321 | 12943 ft | 478 kts | 334° |
| 2026-05-06 00:08 | 36.34951 | -115.09201 | 13633 ft | 499 kts | 334° |
| 2026-05-06 00:08 | 36.38126 | -115.11164 | 14300 ft | 521 kts | 334° |
| 2026-05-06 00:08 | 36.41487 | -115.12801 | 15547 ft | 517 kts | 350° |
| 2026-05-06 00:08 | 36.45082 | -115.13214 | 16925 ft | 521 kts | 357° |
| 2026-05-06 00:09 | 36.48680 | -115.13242 | 18561 ft | 511 kts | 4° |
| 2026-05-06 00:09 | 36.52307 | -115.12989 | 19029 ft | 538 kts | 4° |
| 2026-05-06 00:09 | 36.56121 | -115.12823 | 19026 ft | 557 kts | 2° |
| 2026-05-06 00:09 | 36.60041 | -115.12641 | 19212 ft | 569 kts | 4° |
| 2026-05-06 00:10 | 36.64019 | -115.12387 | 19561 ft | 574 kts | 6° |
| 2026-05-06 00:10 | 36.68018 | -115.11845 | 19696 ft | 582 kts | 7° |
| 2026-05-06 00:10 | 36.72108 | -115.11277 | 19299 ft | 600 kts | 7° |
| 2026-05-06 00:10 | 36.76157 | -115.10670 | 18987 ft | 568 kts | 9° |
| 2026-05-06 00:11 | 36.79975 | -115.10021 | 18842 ft | 541 kts | 9° |
| 2026-05-06 00:11 | 36.83636 | -115.09397 | 18677 ft | 523 kts | 8° |
| 2026-05-06 00:11 | 36.87196 | -115.08812 | 18575 ft | 507 kts | 7° |
| 2026-05-06 00:11 | 36.90626 | -115.08328 | 18846 ft | 488 kts | 7° |
| 2026-05-06 00:12 | 36.93944 | -115.08152 | 18874 ft | 466 kts | 351° |
| 2026-05-06 00:12 | 36.99169 | -115.09926 | 19327 ft | 426 kts | 346° |
| 2026-05-06 00:12 | 37.01990 | -115.10919 | 19533 ft | 411 kts | 346° |
| 2026-05-06 00:13 | 37.04698 | -115.11890 | 19699 ft | 399 kts | 346° |
| 2026-05-06 00:13 | 37.07318 | -115.12830 | 19883 ft | 384 kts | 346° |
| 2026-05-06 00:13 | 37.09839 | -115.13738 | 19989 ft | 373 kts | 346° |
| 2026-05-06 00:13 | 37.12304 | -115.14658 | 19852 ft | 368 kts | 345° |
| 2026-05-06 00:14 | 37.14736 | -115.15641 | 19549 ft | 367 kts | 344° |
| 2026-05-06 00:14 | 37.17162 | -115.16611 | 19271 ft | 365 kts | 345° |
| 2026-05-06 00:14 | 37.19304 | -115.17752 | 16729 ft | 229 kts | 330° |
| 2026-05-06 00:14 | 37.21967 | -115.20505 | 7820 ft | 700 kts | 319° |
| 2026-05-06 00:15 | 37.25575 | -115.23287 | 5731 ft | 570 kts | 320° |
| 2026-05-06 00:15 | 37.28378 | -115.26133 | 6906 ft | 494 kts | 316° |
| 2026-05-06 00:15 | 37.31282 | -115.28846 | 7020 ft | 599 kts | 320° |
| 2026-05-06 00:15 | 37.33013 | -115.33642 | 7108 ft | 670 kts | 277° |
| 2026-05-06 00:16 | 37.31333 | -115.38757 | 5351 ft | 585 kts | 237° |
| 2026-05-06 00:16 | 37.29625 | -115.37832 | 5390 ft | 434 kts | 77° |
| 2026-05-06 00:16 | 37.30121 | -115.34000 | 6793 ft | 433 kts | 91° |
| 2026-05-06 00:16 | 37.31211 | -115.29413 | 6199 ft | 667 kts | 64° |
| 2026-05-06 00:17 | 37.30212 | -115.27263 | 5956 ft | 454 kts | 272° |
| 2026-05-06 00:17 | 37.31972 | -115.30553 | 6012 ft | 569 kts | 322° |
| 2026-05-06 00:17 | 37.34659 | -115.28004 | 6011 ft | 473 kts | 158° |
| 2026-05-06 00:17 | 37.35751 | -115.24802 | 9442 ft | 342 kts | 88° |
| 2026-05-06 00:18 | 37.35289 | -115.22447 | 4994 ft | 196 kts | 77° |
| 2026-05-06 00:18 | 37.35613 | -115.20250 | 4832 ft | 333 kts | 69° |
| 2026-05-06 00:18 | 37.36978 | -115.20477 | 5498 ft | 205 kts | 292° |
| 2026-05-06 00:18 | 37.37577 | -115.21346 | 6823 ft | 117 kts | 314° |
| 2026-05-06 00:19 | 37.37888 | -115.20447 | 4548 ft | 241 kts | 160° |
| 2026-05-06 00:19 | 37.36093 | -115.18838 | 3847 ft | 406 kts | 60° |
| 2026-05-06 00:19 | 37.36579 | -115.19961 | 5164 ft | 274 kts | 206° |
| 2026-05-06 00:19 | 37.35101 | -115.18695 | 3870 ft | 431 kts | 61° |
| 2026-05-06 00:20 | 37.35648 | -115.14351 | 3717 ft | 649 kts | 112° |
| 2026-05-06 00:20 | 37.36084 | -115.09060 | 4945 ft | 581 kts | 103° |
| 2026-05-06 00:20 | 37.37126 | -115.05001 | 4469 ft | 751 kts | 342° |
| 2026-05-06 00:20 | 37.37978 | -115.10364 | 10184 ft | 473 kts | 288° |
| 2026-05-06 00:21 | 37.38435 | -115.14310 | 9879 ft | 209 kts | 202° |
| 2026-05-06 00:21 | 37.37802 | -115.19132 | 3755 ft | 826 kts | 296° |
| 2026-05-06 00:21 | 37.37162 | -115.24641 | 6680 ft | 720 kts | 174° |
| 2026-05-06 00:21 | 37.37620 | -115.21348 | 3865 ft | 762 kts | 350° |
| 2026-05-06 00:22 | 37.40226 | -115.17632 | 3612 ft | 850 kts | 136° |
| 2026-05-06 00:22 | 37.36608 | -115.12340 | 5048 ft | 811 kts | 111° |
| 2026-05-06 00:22 | 37.32634 | -115.09851 | 4797 ft | 786 kts | 167° |
| 2026-05-06 00:22 | 37.29834 | -115.13677 | 4398 ft | 846 kts | 311° |
| 2026-05-06 00:23 | 37.34304 | -115.11041 | 4294 ft | 917 kts | 54° |
| 2026-05-06 00:23 | 37.40057 | -115.09063 | 5580 ft | 922 kts | 18° |
| 2026-05-06 00:23 | 37.44523 | -115.03634 | 6965 ft | 897 kts | 61° |
| 2026-05-06 00:23 | 37.41929 | -114.98191 | 5574 ft | 965 kts | 199° |
| 2026-05-06 00:24 | 37.38714 | -115.05049 | 4711 ft | 971 kts | 269° |
| 2026-05-06 00:24 | 37.40349 | -115.12881 | 4256 ft | 971 kts | 324° |
| 2026-05-06 00:24 | 37.43114 | -115.16428 | 3748 ft | 222 kts | 323° |
| 2026-05-06 00:24 | 37.44592 | -115.17098 | 5383 ft | 135 kts | 85° |
| 2026-05-06 00:25 | 37.45179 | -115.16104 | 5455 ft | 96 kts | 340° |
| 2026-05-06 00:25 | 37.46442 | -115.17235 | 4606 ft | 333 kts | 348° |
| 2026-05-06 00:25 | 37.46990 | -115.15707 | 5036 ft | 435 kts | 193° |
| 2026-05-06 00:25 | 37.44055 | -115.16387 | 5415 ft | 399 kts | 189° |
| 2026-05-06 00:26 | 37.41415 | -115.16820 | 5901 ft | 367 kts | 186° |
| 2026-05-06 00:26 | 37.38766 | -115.17100 | 7929 ft | 427 kts | 184° |
| 2026-05-06 00:26 | 37.35168 | -115.17551 | 11398 ft | 574 kts | 185° |
| 2026-05-06 00:26 | 37.31556 | -115.17963 | 13935 ft | 471 kts | 185° |
| 2026-05-06 00:27 | 37.28559 | -115.18352 | 15749 ft | 432 kts | 198° |
| 2026-05-06 00:27 | 37.25536 | -115.17487 | 15395 ft | 439 kts | 157° |
| 2026-05-06 00:27 | 37.23042 | -115.16188 | 15211 ft | 383 kts | 156° |
| 2026-05-06 00:27 | 37.20620 | -115.14901 | 15054 ft | 373 kts | 156° |
| 2026-05-06 00:28 | 37.18261 | -115.13647 | 14903 ft | 364 kts | 156° |
| 2026-05-06 00:28 | 37.15896 | -115.12370 | 14902 ft | 387 kts | 155° |
| 2026-05-06 00:28 | 37.13299 | -115.10947 | 15014 ft | 428 kts | 155° |
| 2026-05-06 00:28 | 37.10094 | -115.09173 | 15226 ft | 594 kts | 155° |
| 2026-05-06 00:29 | 37.05829 | -115.06789 | 15641 ft | 741 kts | 155° |
| 2026-05-06 00:29 | 37.00792 | -115.03951 | 16228 ft | 840 kts | 155° |
| 2026-05-06 00:29 | 36.95219 | -115.00799 | 16868 ft | 920 kts | 155° |
| 2026-05-06 00:29 | 36.89195 | -114.97379 | 17566 ft | 971 kts | 154° |
| 2026-05-06 00:30 | 36.83112 | -114.93850 | 16478 ft | 882 kts | 154° |
| 2026-05-06 00:30 | 36.78067 | -114.91605 | 15554 ft | 695 kts | 185° |
| 2026-05-06 00:30 | 36.73433 | -114.92127 | 15296 ft | 666 kts | 185° |
| 2026-05-06 00:30 | 36.68800 | -114.92639 | 15151 ft | 671 kts | 185° |
| 2026-05-06 00:31 | 36.64229 | -114.93728 | 15245 ft | 670 kts | 198° |
| 2026-05-06 00:31 | 36.59807 | -114.95500 | 15628 ft | 666 kts | 193° |
| 2026-05-06 00:31 | 36.55291 | -114.96728 | 15794 ft | 664 kts | 191° |
| 2026-05-06 00:31 | 36.50777 | -114.97851 | 16480 ft | 658 kts | 190° |
| 2026-05-06 00:32 | 36.46816 | -114.98617 | 12456 ft | 382 kts | 189° |
| 2026-05-06 00:32 | 36.41286 | -114.99242 | 8745 ft | 855 kts | 200° |
| 2026-05-06 00:32 | 36.36432 | -115.00746 | 8794 ft | 630 kts | 189° |
| 2026-05-06 00:32 | 36.33869 | -114.99147 | 4552 ft | 462 kts | 119° |
| 2026-05-06 00:33 | 36.31677 | -114.98210 | 4578 ft | 314 kts | 186° |
| 2026-05-06 00:33 | 36.29489 | -114.98346 | 4311 ft | 287 kts | 233° |
| 2026-05-06 00:33 | 36.27748 | -114.99045 | 3035 ft | 236 kts | 216° |
| 2026-05-06 00:33 | 36.26698 | -115.00302 | 2632 ft | 185 kts | 225° |
| 2026-05-06 00:34 | 36.25786 | -115.01336 | 2281 ft | 181 kts | 219° |
| 2026-05-06 00:34 | 36.24902 | -115.02286 | 1894 ft | 170 kts | 218° |
| 2026-05-06 00:34 | 36.24093 | -115.03145 | 1857 ft | 120 kts | 219° |
| 2026-05-06 00:34 | 36.23697 | -115.03568 | 1849 ft | 44 kts | 220° |
| 2026-05-06 00:35 | 36.23499 | -115.03781 | 1848 ft | 36 kts | 224° |
| 2026-05-06 00:35 | 36.23459 | -115.03910 | 1848 ft | 13 kts | 311° |
| 2026-05-06 00:35 | 36.23544 | -115.03974 | 1846 ft | 16 kts | 27° |
| 2026-05-06 00:35 | 36.23617 | -115.03980 | 1846 ft | 13 kts | 311° |
| 2026-05-06 00:36 | 36.23668 | -115.04001 | 1847 ft | 0 kts | 45° |